ADDS TAF Board (Experimental) INFO Settings
IDs: Format: Expanded Condensed

KLAS - Las Vegas/McCarran I, NV, US

Issued at 1120 UTC 29 May 2015
Updated at: 1414 UTC 29 May 2015
Time1356Z 29/15Z 29/16Z 29/17Z 29/18Z 29/19Z 29/20Z 29/21Z 29/22Z 29/23Z 30/00Z 30/01Z 30/02Z 30/03Z
Type OBS PRVL PRVL PRVL PRVL PRVL PRVL PRVL PRVL PRVL PRVL PRVL PRVL PRVL
VIS 10 >6 >6 >6 >6 >6 >6 >6 >6 >6 >6 >6 >6 >6
CIG -- -- -- -- -- -- -- -- -- -- -- -- -- --
Cover CLR SCT SCT SCT SCT SCT FEW FEW FEW FEW FEW FEW FEW FEW
FltCat VFR VFR VFR VFR VFR VFR VFR VFR VFR VFR VFR VFR VFR VFR
WX -- -- -- -- -- -- -- -- -- -- -- -- -- --
WDir 180 200 200 200 200 200 120 120 120 120 120 120 120 180
WSpd 3 9 9 9 9 9 8 8 8 8 8 8 8 10
WGst -- -- -- -- -- -- -- -- -- -- -- -- -- --
R01/19
XWnd -1 -1 -1 -1 -1 -1 -8 -8 -8 -8 -8 -8 -8 -4
HWnd -3 -9 -9 -9 -9 -9 -1 -1 -1 -1 -1 -1 -1 -9
R07/25
XWnd -3 -8 -8 -8 -8 -8 -4 -4 -4 -4 -4 -4 -4 -10
HWnd 0 -3 -3 -3 -3 -3 7 7 7 7 7 7 7 0

NOTE: TEMPO conditions in [brackets]. Keep in mind TEMPO conditions might be better (lower impact) than prevailing conditions.

Raw TAF
KLAS 291120Z 2912/3012 20009KT P6SM SCT220
  FM292000 12008KT P6SM FEW120
  FM300300 18010KT P6SM FEW250


Raw METAR
KLAS 291356Z 18003KT 10SM CLR 27/00 A2993 RMK AO2 SLP106 T02670000
KLAS 291256Z 28004KT 10SM FEW250 24/02 A2990 RMK AO2 SLP097 T02440022
KLAS 291156Z 24005KT 10SM FEW250 24/01 A2987 RMK AO2 SLP088 T02440006 10306 20244 53010

METAR Board
Radar Display
Forecast Discussion

TAF Board Legend

Potential Impact
Threat None Slight Moderate High
Visibility (sm) ≥5.1 5.1>X≥3 3>X≥1 <1
Ceiling (100 ft) ≥30.1 30.1>X≥10 10>X≥5 <5
Wind Speed (kt) <10 10≤X<20 20≤X<30 ≥30
Wind Gust (kt) <15 15≤X<25 25≤X<35 ≥35
Weather No Wx Reported VCTS,-TS,-FZRA,SN TS,FZRA +TS,+FZRA,+SN